Time;durP1;ratioP1;P1;durP2;ratioP2;P2;SDS_P1;SDS_P2;PMS_P1;PMS_P2;Temp;Humidity;BMP_temperature;BMP_pressure;BME280_temperature;BME280_humidity;BME280_pressure;Samples;Min_cycle;Max_cycle;Signal;HPM_P1;HPM_P2
2023/04/30 00:02:13;;;;;;;;;32.67;25.00;;;;;17.37;51.60;101299.13;4872248;29;45629;-85
2023/04/30 00:04:41;;;;;;;;;29.33;26.33;;;;;17.66;51.86;101288.22;4885353;29;45381;-85
2023/04/30 00:07:08;;;;;;;;;27.00;26.33;;;;;17.15;51.87;101274.16;4871226;29;45541;-85
2023/04/30 00:09:33;;;;;;;;;25.67;25.67;;;;;17.31;51.59;101301.84;4886284;29;47248;-85
2023/04/30 00:11:59;;;;;;;;;30.67;29.33;;;;;17.19;51.75;101289.38;4874444;29;45387;-86
2023/04/30 00:14:28;;;;;;;;;31.00;26.00;;;;;17.66;51.83;101301.66;4852479;29;45452;-86
2023/04/30 00:16:54;;;;;;;;;27.33;27.33;;;;;17.24;51.88;101297.41;4856076;29;45373;-86
2023/04/30 00:19:19;;;;;;;;;32.33;28.33;;;;;17.25;51.87;101291.13;4869838;29;46981;-85
2023/04/30 00:21:45;;;;;;;;;29.33;26.33;;;;;17.26;51.88;101293.81;4872244;29;45354;-85
2023/04/30 00:24:10;;;;;;;;;39.67;28.00;;;;;17.25;52.08;101297.41;4855486;29;45638;-85
2023/04/30 00:26:36;;;;;;;;;25.00;24.00;;;;;17.25;52.17;101293.81;4872053;29;45457;-85
2023/04/30 00:29:01;;;;;;;;;29.50;28.50;;;;;17.23;51.91;101284.84;4870681;29;47205;-85
2023/04/30 00:31:28;;;;;;;;;34.33;31.33;;;;;17.50;52.43;101290.09;4872100;29;45417;-85
2023/04/30 00:33:53;;;;;;;;;27.00;25.67;;;;;17.13;52.25;101286.72;4871261;29;45469;-85
2023/04/30 00:36:18;;;;;;;;;26.00;24.67;;;;;17.18;52.37;101296.53;4855730;29;45807;-85
2023/04/30 00:38:44;;;;;;;;;28.33;23.67;;;;;17.09;52.46;101282.25;4871355;29;47022;-85
2023/04/30 00:41:09;;;;;;;;;32.00;27.33;;;;;17.16;52.20;101284.00;4853842;29;45468;-85
2023/04/30 00:43:36;;;;;;;;;25.67;22.67;;;;;17.46;52.30;101279.38;4853570;29;45421;-86
2023/04/30 00:46:04;;;;;;;;;23.33;19.67;;;;;17.13;52.08;101284.91;4869409;29;45388;-85
2023/04/30 00:48:29;;;;;;;;;32.00;27.00;;;;;17.14;52.28;101280.44;4868647;29;46216;-85
2023/04/30 00:50:55;;;;;;;;;32.33;29.67;;;;;17.11;52.41;101269.72;4868587;29;45300;-85
2023/04/30 00:53:20;;;;;;;;;30.67;27.00;;;;;17.16;52.67;101273.25;4869952;29;45478;-85
2023/04/30 00:55:47;;;;;;;;;29.00;25.67;;;;;17.38;52.48;101274.91;4869106;29;45427;-85
2023/04/30 00:58:12;;;;;;;;;30.33;26.00;;;;;17.08;52.38;101265.22;4869684;29;46709;-86
2023/04/30 01:00:38;;;;;;;;;29.33;27.67;;;;;17.21;52.38;101268.75;4869698;29;45518;-85
2023/04/30 01:03:03;;;;;;;;;29.00;29.00;;;;;17.10;52.49;101262.53;4870961;29;45731;-85
2023/04/30 01:05:36;;;;;;;;;34.67;31.00;;;;;17.15;52.56;101271.47;4875228;29;45392;-86
2023/04/30 01:08:02;;;;;;;;;42.33;34.33;;;;;17.07;52.60;101265.25;4872303;29;47489;-86
2023/04/30 01:10:34;;;;;;;;;37.00;34.33;;;;;17.42;52.43;101264.16;4872495;29;45305;-86
2023/04/30 01:13:16;;;;;;;;;35.00;30.67;;;;;17.02;52.57;101270.63;4868134;29;45404;-85
2023/04/30 01:15:52;;;;;;;;;39.67;35.00;;;;;17.37;52.63;101267.78;4867783;29;45380;-86
2023/04/30 01:18:24;;;;;;;;;32.00;31.33;;;;;17.42;52.64;101266.84;4869033;29;46848;-86
2023/04/30 01:20:55;;;;;;;;;22.00;20.33;;;;;17.37;52.78;101264.16;4850914;29;45506;-86
2023/04/30 01:23:46;;;;;;;;;41.33;33.00;;;;;17.38;52.40;101264.16;4849372;29;45563;-86
2023/04/30 01:26:14;;;;;;;;;34.00;27.33;;;;;16.85;53.25;101262.63;4851036;29;45506;-85
2023/04/30 01:28:43;;;;;;;;;30.00;29.00;;;;;17.04;53.58;101251.81;4849367;29;47225;-85
2023/04/30 01:31:17;;;;;;;;;38.00;34.00;;;;;17.20;52.93;101253.53;4850050;29;45732;-85
2023/04/30 01:33:43;;;;;;;;;26.00;23.67;;;;;16.65;53.92;101251.03;4874883;29;45436;-85
2023/04/30 01:36:28;;;;;;;;;32.67;30.33;;;;;17.18;53.43;101255.31;4876047;29;45329;-85
2023/04/30 01:39:25;;;;;;;;;26.00;25.00;;;;;17.15;52.94;101253.56;4889994;29;45361;-85
2023/04/30 01:41:53;;;;;;;;;32.67;25.33;;;;;17.07;53.66;101254.50;4887775;29;45435;-85
2023/04/30 01:44:48;;;;;;;;;32.00;28.67;;;;;17.17;53.18;101249.06;4881902;29;45400;-85
2023/04/30 01:47:30;;;;;;;;;35.67;30.67;;;;;16.92;53.01;101236.63;4871794;29;45383;-85
2023/04/30 01:50:04;;;;;;;;;35.67;30.00;;;;;17.08;53.35;101243.72;4870902;29;47439;-85
2023/04/30 01:52:45;;;;;;;;;31.67;25.33;;;;;16.94;53.25;101243.78;4871352;29;45497;-85
2023/04/30 01:55:21;;;;;;;;;29.67;25.00;;;;;16.96;53.38;101252.72;4856740;29;45522;-85
2023/04/30 01:58:11;;;;;;;;;32.00;28.67;;;;;16.96;53.09;101255.41;4855129;29;45382;-85
2023/04/30 02:00:37;;;;;;;;;27.33;25.33;;;;;16.44;53.98;101255.56;4870563;29;47537;-85
2023/04/30 02:03:02;;;;;;;;;19.67;17.67;;;;;16.52;54.09;101250.16;4857019;29;45696;-85
2023/04/30 02:06:06;;;;;;;;;25.00;24.00;;;;;17.07;53.38;101251.81;4874258;29;45447;-85
2023/04/30 02:08:31;;;;;;;;;26.00;21.33;;;;;16.39;54.01;101249.28;4872231;29;45398;-85
2023/04/30 02:10:56;;;;;;;;;25.67;23.00;;;;;16.40;54.45;101253.75;4872430;29;47765;-85
2023/04/30 02:13:22;;;;;;;;;30.33;23.00;;;;;16.33;54.82;101263.59;4874440;29;44747;-85
2023/04/30 02:15:47;;;;;;;;;31.33;27.00;;;;;16.24;54.57;101246.63;4875510;29;45358;-85
2023/04/30 02:21:34;;;;;;;;;28.33;25.67;;;;;16.20;54.22;101248.44;4873977;29;45377;-85
2023/04/30 02:24:00;;;;;;;;;28.00;24.67;;;;;16.26;54.40;101255.56;4873086;29;45377;-86
2023/04/30 02:26:25;;;;;;;;;25.33;22.33;;;;;16.26;54.25;101252.88;4874338;29;45348;-85
2023/04/30 02:28:51;;;;;;;;;26.00;24.67;;;;;16.26;54.23;101253.78;4874105;29;44960;-86
2023/04/30 02:31:16;;;;;;;;;30.00;24.33;;;;;16.30;54.23;101254.66;4873522;29;47579;-85
2023/04/30 02:33:42;;;;;;;;;24.33;21.67;;;;;16.34;54.69;101265.41;4871913;29;45478;-86
2023/04/30 02:36:07;;;;;;;;;26.67;23.33;;;;;16.31;54.36;101257.34;4856524;29;45469;-85
2023/04/30 02:38:32;;;;;;;;;20.67;17.33;;;;;16.34;54.26;101253.75;4871261;29;45259;-85
2023/04/30 02:40:58;;;;;;;;;32.00;27.67;;;;;16.33;54.10;101258.25;4856193;29;47116;-85
2023/04/30 02:43:23;;;;;;;;;26.67;18.33;;;;;16.40;54.25;101256.44;4876006;29;45657;-86
2023/04/30 02:45:55;;;;;;;;;25.67;24.33;;;;;16.92;53.75;101258.13;4873454;29;45406;-85
2023/04/30 02:48:20;;;;;;;;;23.33;22.33;;;;;16.45;54.17;101262.69;4873371;29;44918;-84
2023/04/30 02:50:46;;;;;;;;;32.67;28.33;;;;;16.47;53.82;101260.03;4870941;29;47182;-85
2023/04/30 02:53:11;;;;;;;;;29.67;27.00;;;;;16.44;54.06;101257.31;4855631;29;45412;-85
2023/04/30 02:55:36;;;;;;;;;26.67;25.00;;;;;16.38;53.95;101255.53;4874274;29;45380;-85
2023/04/30 02:58:02;;;;;;;;;33.67;27.67;;;;;16.46;54.20;101259.13;4873535;29;44716;-86
2023/04/30 03:00:27;;;;;;;;;27.67;24.67;;;;;16.44;54.17;101266.28;4870087;29;47748;-85
2023/04/30 03:02:53;;;;;;;;;23.67;21.67;;;;;16.40;54.35;101251.06;4870542;29;45532;-85
2023/04/30 03:05:22;;;;;;;;;18.67;18.00;;;;;16.34;54.10;101243.03;4873311;29;45798;-86
2023/04/30 03:07:47;;;;;;;;;32.33;27.67;;;;;16.32;53.99;101248.41;4857092;29;45654;-85
2023/04/30 03:10:12;;;;;;;;;25.33;23.33;;;;;16.38;54.24;101250.16;4857364;29;47340;-85
2023/04/30 03:12:38;;;;;;;;;24.67;23.33;;;;;16.39;54.48;101247.50;4872999;29;45571;-85
2023/04/30 03:15:07;;;;;;;;;28.00;25.67;;;;;16.78;54.28;101256.38;4871502;29;45978;-85
2023/04/30 03:17:35;;;;;;;;;27.00;21.33;;;;;16.27;54.34;101247.50;4873590;29;45417;-85
2023/04/30 03:20:00;;;;;;;;;34.00;30.00;;;;;16.26;54.52;101256.47;4871010;29;46994;-85
2023/04/30 03:22:25;;;;;;;;;27.67;25.00;;;;;16.25;54.69;101248.41;4888317;29;46049;-86
2023/04/30 03:24:51;;;;;;;;;31.33;29.33;;;;;16.28;54.74;101257.38;4881858;29;45995;-85
2023/04/30 03:27:16;;;;;;;;;29.67;27.33;;;;;16.25;54.87;101243.06;4870815;29;45432;-85
2023/04/30 03:29:41;;;;;;;;;30.67;26.00;;;;;16.23;54.70;101250.22;4871770;29;45396;-85
2023/04/30 03:32:07;;;;;;;;;38.67;30.33;;;;;16.27;55.06;101250.19;4872137;29;45331;-85
2023/04/30 03:34:40;;;;;;;;;24.33;24.33;;;;;16.51;54.82;101238.53;4872291;29;45531;-86
2023/04/30 03:37:18;;;;;;;;;34.33;33.00;;;;;16.18;55.13;101248.44;4853785;29;45879;-85
2023/04/30 03:39:43;;;;;;;;;36.33;33.33;;;;;16.17;55.24;101249.31;4869815;29;51647;-85
2023/04/30 03:42:09;;;;;;;;;36.67;32.00;;;;;16.09;55.41;101251.09;4868206;29;45897;-85
2023/04/30 03:44:51;;;;;;;;;35.33;29.67;;;;;16.46;55.24;101253.75;4868595;29;45936;-85
2023/04/30 03:47:23;;;;;;;;;39.33;33.00;;;;;16.55;55.37;101242.97;4851256;29;45485;-85
2023/04/30 03:49:53;;;;;;;;;31.67;31.67;;;;;15.99;55.77;101247.53;4870554;29;45671;-85
2023/04/30 03:52:19;;;;;;;;;32.33;28.33;;;;;15.92;55.66;101248.44;4870766;29;45670;-85
2023/04/30 03:55:10;;;;;;;;;31.00;29.33;;;;;16.34;55.26;101235.88;4872259;29;45493;-85
2023/04/30 03:57:37;;;;;;;;;22.00;20.67;;;;;15.93;55.90;101260.06;4856534;29;45536;-85
2023/04/30 04:00:06;;;;;;;;;32.33;30.67;;;;;15.96;55.95;101249.34;4871416;29;47713;-85
2023/04/30 04:02:32;;;;;;;;;38.33;33.00;;;;;15.92;55.71;101250.22;4873731;29;44726;-85
2023/04/30 04:05:14;;;;;;;;;31.00;28.67;;;;;16.29;55.64;101243.03;4856104;29;45498;-85
2023/04/30 04:07:41;;;;;;;;;26.67;25.33;;;;;15.80;56.01;101243.94;4871905;29;45663;-85
2023/04/30 04:10:06;;;;;;;;;34.67;32.00;;;;;15.78;56.12;101248.41;4871005;29;47223;-85
2023/04/30 04:12:32;;;;;;;;;34.33;30.33;;;;;15.72;56.02;101240.38;4869609;29;45561;-85
2023/04/30 04:15:09;;;;;;;;;37.33;30.33;;;;;16.01;56.12;101228.75;4873068;29;45435;-85
2023/04/30 04:17:34;;;;;;;;;32.00;29.00;;;;;15.70;56.20;101233.19;4841081;29;45329;-85
2023/04/30 04:20:00;;;;;;;;;33.67;30.00;;;;;15.77;56.12;101243.97;4871340;29;47293;-85
2023/04/30 04:22:25;;;;;;;;;32.67;27.00;;;;;15.78;56.47;101247.53;4872901;29;45378;-85
2023/04/30 04:24:54;;;;;;;;;32.33;28.67;;;;;15.70;56.03;101234.09;4874575;29;45405;-85
2023/04/30 04:27:19;;;;;;;;;32.67;29.67;;;;;15.70;56.14;101239.44;4873234;29;45507;-85
2023/04/30 04:29:45;;;;;;;;;31.00;27.33;;;;;15.79;56.25;101247.53;4872967;29;47592;-85
2023/04/30 04:32:10;;;;;;;;;34.00;26.33;;;;;15.76;56.44;101250.22;4872776;29;45470;-85
2023/04/30 04:34:41;;;;;;;;;27.67;27.67;;;;;15.76;56.27;101242.16;4870777;29;45506;-85
2023/04/30 04:37:07;;;;;;;;;31.33;26.33;;;;;15.72;56.24;101252.88;4855376;29;45356;-85
2023/04/30 04:39:32;;;;;;;;;30.67;26.67;;;;;15.65;56.43;101249.25;4870374;29;47160;-84
2023/04/30 04:41:58;;;;;;;;;34.33;33.33;;;;;15.70;56.31;101244.81;4855973;29;45492;-84
2023/04/30 04:44:38;;;;;;;;;30.67;30.33;;;;;16.16;56.03;101263.63;4870836;29;45512;-85
2023/04/30 04:47:03;;;;;;;;;35.67;31.00;;;;;15.73;56.31;101255.56;4855265;29;45330;-85
2023/04/30 04:49:29;;;;;;;;;32.33;26.67;;;;;15.86;56.35;101259.16;4871461;29;46991;-85
2023/04/30 04:51:54;;;;;;;;;37.67;29.00;;;;;15.82;56.38;101260.06;4874371;29;45221;-85
2023/04/30 04:54:49;;;;;;;;;36.00;34.33;;;;;16.35;55.59;101271.66;4872651;29;45405;-85
2023/04/30 04:57:15;;;;;;;;;29.00;29.00;;;;;15.85;56.29;101277.94;4858171;29;45563;-85
2023/04/30 04:59:41;;;;;;;;;36.33;34.33;;;;;15.69;56.21;101237.63;4869726;29;46950;-84
2023/04/30 05:02:06;;;;;;;;;34.67;32.00;;;;;15.83;56.33;101272.56;4870166;29;45579;-85
2023/04/30 05:04:40;;;;;;;;;34.00;32.00;;;;;15.63;56.27;101243.00;4869219;29;45805;-84
2023/04/30 05:07:06;;;;;;;;;40.33;34.67;;;;;15.89;56.35;101283.28;4854091;29;45594;-84
2023/04/30 05:09:32;;;;;;;;;35.33;31.67;;;;;15.87;56.38;101273.47;4869138;29;47231;-85
2023/04/30 05:11:57;;;;;;;;;34.33;27.00;;;;;15.92;56.30;101277.06;4872316;29;45799;-85
2023/04/30 05:14:31;;;;;;;;;32.33;28.67;;;;;16.26;56.07;101283.31;4873891;29;45514;-84
2023/04/30 05:16:57;;;;;;;;;39.00;33.33;;;;;15.88;56.19;101268.09;4855180;29;45405;-84
2023/04/30 05:19:22;;;;;;;;;40.00;32.33;;;;;15.99;56.22;101289.56;4871434;29;46760;-85
2023/04/30 05:21:48;;;;;;;;;43.00;34.67;;;;;15.90;56.41;101271.69;4873126;29;45489;-85
2023/04/30 05:24:16;;;;;;;;;32.33;30.00;;;;;16.04;56.23;101290.47;4874972;29;45430;-85
2023/04/30 05:26:42;;;;;;;;;44.33;34.33;;;;;16.03;56.15;101285.97;4872418;29;45713;-85
2023/04/30 05:29:09;;;;;;;;;33.67;29.67;;;;;16.03;56.07;101285.09;4872303;29;48134;-85
2023/04/30 05:31:35;;;;;;;;;36.00;30.67;;;;;16.06;56.16;101285.06;4870571;29;45757;-85
2023/04/30 05:34:00;;;;;;;;;31.67;31.67;;;;;16.10;56.35;101279.75;4875160;29;45343;-85
2023/04/30 05:36:27;;;;;;;;;33.00;31.67;;;;;16.17;56.24;101289.56;4873178;29;45653;-85
2023/04/30 05:38:52;;;;;;;;;47.50;35.00;;;;;16.14;56.25;101277.94;4856410;29;47175;-84
2023/04/30 05:41:18;;;;;;;;;38.33;34.67;;;;;16.24;56.13;101287.78;4873970;29;45910;-84
2023/04/30 05:43:43;;;;;;;;;37.67;32.33;;;;;16.33;55.84;101294.94;4872405;29;44887;-84
2023/04/30 05:46:15;;;;;;;;;36.00;33.33;;;;;16.31;55.85;101280.63;4872453;29;44814;-84
2023/04/30 05:48:40;;;;;;;;;37.67;33.00;;;;;16.31;55.94;101275.25;4871251;29;47705;-85
2023/04/30 05:51:05;;;;;;;;;38.33;37.00;;;;;16.41;56.00;101287.75;4872152;29;44778;-84
2023/04/30 05:53:31;;;;;;;;;23.00;20.00;;;;;16.42;55.78;101278.81;4871972;29;45477;-85
2023/04/30 05:56:29;;;;;;;;;38.00;34.00;;;;;16.93;55.08;101293.06;4872402;29;45577;-85
2023/04/30 05:58:54;;;;;;;;;40.00;35.67;;;;;16.32;56.02;101272.56;4872269;29;47163;-85
2023/04/30 06:01:20;;;;;;;;;41.33;36.67;;;;;16.50;55.74;101290.44;4874101;29;45462;-85
2023/04/30 06:03:46;;;;;;;;;39.33;33.33;;;;;16.80;55.86;101285.88;4871291;29;45562;-85
2023/04/30 06:06:12;;;;;;;;;46.67;38.33;;;;;16.44;55.93;101262.69;4856678;29;45327;-85
2023/04/30 06:08:40;;;;;;;;;39.67;35.67;;;;;16.56;55.74;101279.69;4870687;29;46912;-84
2023/04/30 06:11:06;;;;;;;;;41.00;35.33;;;;;16.52;55.81;101290.41;4872409;29;45428;-85
2023/04/30 06:13:31;;;;;;;;;40.67;36.33;;;;;16.53;56.11;101287.75;4855769;29;45488;-85
2023/04/30 06:15:57;;;;;;;;;44.00;37.67;;;;;16.65;55.96;101285.94;4856619;29;44971;-84
2023/04/30 06:18:22;;;;;;;;;44.00;37.33;;;;;16.71;55.75;101302.03;4874353;29;45265;-84
2023/04/30 06:20:47;;;;;;;;;40.00;36.67;;;;;16.63;55.56;101279.69;4855179;29;45313;-84
2023/04/30 06:23:13;;;;;;;;;38.00;35.33;;;;;16.77;55.93;101299.34;4873012;29;45806;-85
2023/04/30 06:25:38;;;;;;;;;38.00;33.67;;;;;16.84;55.89;101294.88;4871843;29;45483;-84
2023/04/30 06:28:04;;;;;;;;;36.33;35.00;;;;;16.87;55.35;101292.19;4872043;29;47026;-84
2023/04/30 06:30:30;;;;;;;;;36.67;34.67;;;;;16.91;55.54;101297.53;4855191;29;45501;-85
2023/04/30 06:32:56;;;;;;;;;39.33;34.67;;;;;16.83;55.66;101285.91;4870842;29;45384;-85
2023/04/30 06:35:21;;;;;;;;;41.00;37.00;;;;;16.92;55.72;101283.19;4855313;29;45391;-84
2023/04/30 06:37:48;;;;;;;;;51.00;41.00;;;;;17.42;55.50;101289.25;4870149;29;46892;-84
2023/04/30 06:40:13;;;;;;;;;44.67;37.67;;;;;17.14;55.40;101292.06;4871846;29;45465;-84
2023/04/30 06:42:39;;;;;;;;;41.33;36.33;;;;;17.24;55.11;101290.22;4855284;29;45401;-85
2023/04/30 06:45:24;;;;;;;;;42.00;37.67;;;;;17.81;54.57;101289.91;4870776;29;44741;-85
2023/04/30 06:47:51;;;;;;;;;42.00;37.00;;;;;17.56;54.96;101294.56;4856804;29;46436;-85
2023/04/30 06:50:17;;;;;;;;;45.33;36.33;;;;;17.67;55.01;101289.97;4854698;29;45474;-85
2023/04/30 06:52:43;;;;;;;;;45.67;38.67;;;;;17.79;54.59;101275.56;4854290;29;44831;-84
2023/04/30 06:55:16;;;;;;;;;43.67;38.00;;;;;17.97;54.28;101277.25;4870066;29;45751;-84
2023/04/30 06:57:42;;;;;;;;;47.00;36.33;;;;;18.02;54.37;101275.44;4870816;29;44980;-84
2023/04/30 07:00:08;;;;;;;;;47.00;39.33;;;;;18.23;54.26;101274.34;4852794;29;45764;-84
2023/04/30 07:02:33;;;;;;;;;44.67;36.00;;;;;18.28;53.94;101283.28;4871120;29;45400;-84
2023/04/30 07:04:59;;;;;;;;;47.33;38.00;;;;;18.38;53.67;101274.22;4843048;29;44948;-85
2023/04/30 07:07:25;;;;;;;;;51.67;40.00;;;;;18.53;53.55;101278.53;4850861;29;48560;-84
2023/04/30 07:09:52;;;;;;;;;45.33;36.67;;;;;18.55;53.35;101279.44;4850821;29;45488;-84
2023/04/30 07:12:17;;;;;;;;;44.00;37.67;;;;;18.68;53.41;101277.47;4850909;29;45433;-85
2023/04/30 07:15:03;;;;;;;;;45.33;37.00;;;;;19.26;52.31;101275.03;4852957;29;45820;-84
2023/04/30 07:17:28;;;;;;;;;44.67;39.00;;;;;18.69;52.46;101262.22;4836825;29;45316;-84
2023/04/30 07:19:54;;;;;;;;;50.00;41.00;;;;;18.84;52.41;101277.34;4853948;29;45411;-84
2023/04/30 07:22:20;;;;;;;;;52.67;42.33;;;;;18.87;52.51;101280.91;4851232;29;45308;-85
2023/04/30 07:25:20;;;;;;;;;49.00;40.00;;;;;19.36;52.16;101274.00;4850837;29;44822;-85
2023/04/30 07:27:47;;;;;;;;;48.00;40.33;;;;;18.84;52.72;101256.69;4852797;29;46046;-84
2023/04/30 07:30:13;;;;;;;;;43.00;37.00;;;;;19.10;52.29;101269.84;4851889;29;45362;-84
2023/04/30 07:32:40;;;;;;;;;49.67;40.67;;;;;19.24;52.19;101268.78;4850411;29;45432;-84
2023/04/30 07:35:06;;;;;;;;;49.67;39.33;;;;;19.43;52.01;101280.19;4848459;29;45413;-84
2023/04/30 07:38:28;;;;;;;;;46.33;39.33;;;;;19.96;50.98;101275.84;4848554;29;47146;-84
2023/04/30 07:40:53;;;;;;;;;50.33;42.33;;;;;19.47;51.59;101290.03;4831189;29;46115;-84
2023/04/30 07:43:19;;;;;;;;;49.33;41.33;;;;;19.54;51.67;101284.53;4832799;29;46266;-84
2023/04/30 07:45:44;;;;;;;;;50.67;43.33;;;;;19.55;51.23;101286.34;4833848;29;44944;-84
2023/04/30 07:48:09;;;;;;;;;50.00;42.00;;;;;19.64;51.16;101279.00;4846783;29;47598;-84
2023/04/30 07:51:31;;;;;;;;;41.67;36.33;;;;;20.33;50.07;101288.72;4851128;29;45369;-84
2023/04/30 07:53:57;;;;;;;;;51.00;40.33;;;;;19.69;51.43;101280.75;4849422;29;45480;-85
2023/04/30 07:56:22;;;;;;;;;47.33;37.67;;;;;19.78;51.27;101275.22;4853005;29;45391;-84
2023/04/30 07:58:48;;;;;;;;;51.33;40.33;;;;;19.87;51.18;101270.59;4849795;29;47224;-84
2023/04/30 08:01:14;;;;;;;;;45.33;36.00;;;;;20.20;50.62;101285.34;4851226;29;45768;-84
2023/04/30 08:03:39;;;;;;;;;49.00;38.33;;;;;20.10;50.08;101284.59;4851455;29;45392;-84
2023/04/30 08:06:05;;;;;;;;;43.00;36.00;;;;;20.06;49.74;101285.59;4850414;29;45429;-85
2023/04/30 08:08:31;;;;;;;;;48.67;40.33;;;;;19.87;50.02;101289.47;4836043;29;47351;-84
2023/04/30 08:10:56;;;;;;;;;43.67;37.33;;;;;19.93;49.92;101287.56;4850511;29;45551;-85
2023/04/30 08:13:22;;;;;;;;;49.67;39.67;;;;;19.95;50.06;101271.34;4856584;29;45626;-85
2023/04/30 08:15:47;;;;;;;;;43.67;39.33;;;;;20.12;50.48;101276.50;4870891;29;45474;-85
2023/04/30 08:18:12;;;;;;;;;48.67;39.00;;;;;20.26;50.26;101278.94;4867686;29;46937;-85
2023/04/30 08:20:39;;;;;;;;;48.00;38.00;;;;;20.57;50.33;101269.34;4868039;29;45862;-84
2023/04/30 08:23:04;;;;;;;;;45.33;38.67;;;;;20.28;49.78;101278.00;4870938;29;45333;-85
2023/04/30 08:25:30;;;;;;;;;50.33;40.67;;;;;20.30;49.94;101275.25;4872028;29;45551;-85
2023/04/30 08:27:56;;;;;;;;;47.33;36.67;;;;;20.42;50.10;101271.44;4852155;29;47638;-85
2023/04/30 08:30:21;;;;;;;;;42.67;37.00;;;;;20.47;49.49;101267.75;4853409;29;45380;-84
2023/04/30 08:32:48;;;;;;;;;47.67;39.00;;;;;20.77;49.24;101274.41;4870098;29;45601;-84
2023/04/30 08:35:15;;;;;;;;;49.00;39.00;;;;;20.60;48.55;101267.53;4869658;29;45753;-84
2023/04/30 08:37:41;;;;;;;;;45.67;39.67;;;;;20.39;48.72;101269.69;4870716;29;47182;-84
2023/04/30 08:40:08;;;;;;;;;51.00;38.67;;;;;20.51;49.47;101264.06;4872098;29;45553;-84
2023/04/30 08:42:36;;;;;;;;;50.67;41.00;;;;;20.76;48.84;101269.94;4870992;29;45819;-85
2023/04/30 08:45:11;;;;;;;;;50.00;39.33;;;;;20.70;48.38;101264.66;4872601;29;45473;-84
2023/04/30 08:47:44;;;;;;;;;46.00;37.67;;;;;20.96;48.91;101263.22;4871442;29;47177;-85
2023/04/30 08:50:10;;;;;;;;;44.00;38.00;;;;;20.60;49.30;101268.44;4859986;29;45420;-84
2023/04/30 08:52:37;;;;;;;;;39.67;35.67;;;;;20.71;49.49;101270.94;4873390;29;45484;-84
2023/04/30 08:55:12;;;;;;;;;46.00;37.33;;;;;21.14;48.58;101251.13;4872760;29;45853;-84
2023/04/30 08:57:38;;;;;;;;;49.00;36.33;;;;;20.90;49.63;101275.03;4854603;29;46295;-85
2023/04/30 09:00:05;;;;;;;;;42.33;36.33;;;;;21.00;48.33;101266.75;4870525;29;45352;-84
2023/04/30 09:02:31;;;;;;;;;53.67;41.33;;;;;21.07;48.45;101263.03;4870737;29;45389;-84
2023/04/30 09:04:57;;;;;;;;;44.00;38.33;;;;;20.93;48.28;101261.47;4869886;29;45644;-85
2023/04/30 09:07:26;;;;;;;;;42.33;37.33;;;;;21.21;48.05;101266.31;4872795;29;48249;-85
2023/04/30 09:09:52;;;;;;;;;41.00;36.00;;;;;20.86;48.77;101253.53;4856911;29;45381;-85
2023/04/30 09:12:18;;;;;;;;;45.33;36.00;;;;;20.93;48.38;101241.66;4856789;29;45794;-85
2023/04/30 09:15:17;;;;;;;;;38.00;35.00;;;;;21.53;47.56;101265.63;4874006;29;45312;-85
2023/04/30 09:17:43;;;;;;;;;44.00;34.67;;;;;21.07;48.83;101269.31;4857968;29;45576;-85
2023/04/30 09:20:10;;;;;;;;;33.00;33.00;;;;;21.35;48.27;101258.78;4873702;29;44922;-84
2023/04/30 09:22:37;;;;;;;;;36.00;31.67;;;;;21.21;48.34;101255.50;4874980;29;45308;-84
2023/04/30 09:25:03;;;;;;;;;42.67;35.67;;;;;21.25;48.02;101251.78;4874322;29;45803;-84
2023/04/30 09:27:28;;;;;;;;;39.67;35.00;;;;;21.32;47.50;101247.13;4857446;29;48628;-84
2023/04/30 09:29:55;;;;;;;;;40.33;37.00;;;;;21.38;47.79;101239.75;4872283;29;45800;-84
2023/04/30 09:32:20;;;;;;;;;32.67;29.00;;;;;21.40;47.03;101255.09;4872140;29;45305;-84
2023/04/30 09:35:35;;;;;;;;;39.67;32.33;;;;;21.83;45.91;101254.09;4872892;29;45491;-85
2023/04/30 09:38:02;;;;;;;;;32.00;31.33;;;;;21.44;46.22;101264.94;4818365;29;46637;-84
2023/04/30 09:40:39;;;;;;;;;49.00;37.33;;;;;21.74;46.63;101244.38;4819293;29;45544;-84
2023/04/30 09:43:05;;;;;;;;;39.67;34.67;;;;;21.36;47.03;101241.59;4819547;29;45513;-85
2023/04/30 09:45:48;;;;;;;;;34.67;33.00;;;;;22.05;46.32;101255.34;4818717;29;45431;-84
2023/04/30 09:48:31;;;;;;;;;37.67;36.00;;;;;22.15;45.49;101250.56;4813699;29;47382;-84
2023/04/30 09:50:56;;;;;;;;;38.33;32.67;;;;;21.68;46.50;101241.84;4815836;29;45584;-84
2023/04/30 09:53:23;;;;;;;;;35.00;32.00;;;;;21.70;46.74;101245.38;4815868;29;45575;-84
2023/04/30 09:55:49;;;;;;;;;34.67;33.00;;;;;21.91;46.10;101242.13;4815984;29;45802;-84
2023/04/30 09:58:16;;;;;;;;;34.00;32.67;;;;;21.86;46.85;101235.97;4814465;29;47254;-84
2023/04/30 10:00:44;;;;;;;;;32.33;29.00;;;;;21.90;46.18;101236.78;4816076;29;45451;-84
2023/04/30 10:03:12;;;;;;;;;31.33;30.00;;;;;22.19;46.12;101230.59;4815274;29;45454;-84
2023/04/30 10:05:45;;;;;;;;;32.67;30.00;;;;;22.44;44.62;101225.47;4814126;29;45639;-85
2023/04/30 10:08:18;;;;;;;;;32.33;29.00;;;;;22.44;45.51;101220.03;4813378;29;46165;-85
2023/04/30 10:10:49;;;;;;;;;28.33;24.67;;;;;22.40;45.52;101217.44;4815328;29;46346;-85
2023/04/30 10:13:18;;;;;;;;;32.67;30.33;;;;;22.44;45.10;101219.13;4815414;29;45521;-84
2023/04/30 10:15:50;;;;;;;;;37.00;32.00;;;;;22.50;45.31;101222.59;4842454;29;45542;-85
2023/04/30 10:18:27;;;;;;;;;35.67;31.67;;;;;22.60;45.77;101216.88;4836096;29;45445;-85
2023/04/30 10:20:53;;;;;;;;;31.67;28.33;;;;;22.48;45.47;101216.31;4835990;29;45287;-85
2023/04/30 10:23:20;;;;;;;;;26.33;26.33;;;;;22.51;45.87;101205.38;4834343;29;45399;-85
2023/04/30 10:25:47;;;;;;;;;30.67;24.00;;;;;22.52;45.84;101195.41;4848646;29;45464;-85
2023/04/30 10:28:12;;;;;;;;;26.67;24.00;;;;;22.64;43.90;101210.44;4846949;29;47304;-85
2023/04/30 10:30:40;;;;;;;;;28.00;26.33;;;;;22.62;44.46;101202.34;4834033;29;45457;-85
2023/04/30 10:33:18;;;;;;;;;31.00;27.00;;;;;22.90;43.98;101197.00;4842567;29;45501;-85
2023/04/30 10:36:10;;;;;;;;;30.00;25.33;;;;;23.15;44.52;101196.31;4852497;29;45623;-85
2023/04/30 10:38:36;;;;;;;;;28.33;24.67;;;;;22.80;43.25;101195.50;4849567;29;46419;-84
2023/04/30 10:41:06;;;;;;;;;31.67;29.00;;;;;23.04;44.05;101193.03;4853318;29;45351;-84
2023/04/30 10:43:34;;;;;;;;;23.67;23.33;;;;;22.76;44.26;101188.38;4853104;29;45415;-84
2023/04/30 10:46:01;;;;;;;;;28.67;27.00;;;;;22.77;44.21;101201.03;4869274;29;45489;-84
2023/04/30 10:48:29;;;;;;;;;33.67;28.67;;;;;22.62;43.85;101191.50;4867922;29;45499;-85
2023/04/30 10:50:57;;;;;;;;;25.67;25.67;;;;;22.94;43.80;101190.53;4871167;29;45445;-84
2023/04/30 10:53:25;;;;;;;;;32.33;28.00;;;;;22.63;44.44;101187.00;4872083;29;45844;-84
2023/04/30 10:55:56;;;;;;;;;23.00;22.00;;;;;23.06;43.37;101183.91;4872200;29;45367;-84
2023/04/30 10:58:23;;;;;;;;;29.00;24.33;;;;;22.77;44.50;101179.34;4870678;29;47429;-84
2023/04/30 11:00:59;;;;;;;;;21.33;21.00;;;;;23.03;44.01;101183.13;4873496;29;45467;-85
2023/04/30 11:03:25;;;;;;;;;28.67;24.33;;;;;22.92;44.34;101181.56;4857443;29;45513;-84
2023/04/30 11:05:50;;;;;;;;;31.67;29.33;;;;;23.14;44.67;101184.53;4884173;29;45072;-84
2023/04/30 11:08:16;;;;;;;;;34.67;26.67;;;;;23.41;43.17;101176.50;4892064;29;46570;-84
2023/04/30 11:10:57;;;;;;;;;23.00;20.33;;;;;23.98;43.65;101169.19;4891781;29;45455;-84
2023/04/30 11:13:25;;;;;;;;;29.33;26.33;;;;;24.17;43.93;101172.13;4890607;29;45401;-84
2023/04/30 11:15:51;;;;;;;;;30.67;25.00;;;;;24.19;43.09;101163.91;4891673;29;45530;-84
2023/04/30 11:18:17;;;;;;;;;23.33;19.33;;;;;24.57;41.37;101158.94;4891938;29;47949;-84
2023/04/30 11:20:53;;;;;;;;;20.67;19.67;;;;;25.02;40.91;101166.28;4890693;29;45432;-84
2023/04/30 11:23:22;;;;;;;;;21.67;20.00;;;;;25.01;41.99;101162.69;4889233;29;45453;-84